Time;durP1;ratioP1;P1;durP2;ratioP2;P2;SDS_P1;SDS_P2;PMS_P1;PMS_P2;Temp;Humidity;BMP_temperature;BMP_pressure;BME280_temperature;BME280_humidity;BME280_pressure;Samples;Min_cycle;Max_cycle;Signal;HPM_P1;HPM_P2
2021/03/27 00:01:08;;;;;;;4.15;2.80;;;;;;;;;;5042557;28;20198;-86
2021/03/27 00:03:43;;;;;;;3.33;2.55;;;;;;;;;;5048308;28;20218;-86
2021/03/27 00:06:30;;;;;;;2.75;2.55;;;;;;;;;;5050136;28;20259;-85
2021/03/27 00:09:05;;;;;;;3.42;3.00;;;;;;;;;;5049130;28;20194;-85
2021/03/27 00:11:43;;;;;;;2.45;2.25;;;;;;;;;;5014435;28;20209;-86
2021/03/27 00:14:14;;;;;;;2.63;2.42;;;;;;;;;;5014550;28;20191;-86
2021/03/27 00:16:51;;;;;;;4.32;2.50;;;;;;;;;;5013912;28;20234;-85
2021/03/27 00:19:31;;;;;;;3.20;2.45;;;;;;;;;;5014139;28;20187;-87
2021/03/27 00:22:04;;;;;;;4.85;2.60;;;;;;;;;;5047727;28;20225;-86
2021/03/27 00:25:03;;;;;;;3.25;2.55;;;;;;;;;;5053910;28;20772;-85
2021/03/27 00:27:39;;;;;;;5.30;3.28;;;;;;;;;;5051367;28;20200;-86
2021/03/27 00:30:12;;;;;;;3.67;2.95;;;;;;;;;;5050127;28;20620;-85
2021/03/27 00:32:44;;;;;;;2.90;2.20;;;;;;;;;;5048382;28;20256;-86
2021/03/27 00:35:17;;;;;;;4.03;2.78;;;;;;;;;;5053870;28;20202;-86
2021/03/27 00:37:47;;;;;;;4.22;2.92;;;;;;;;;;5050545;28;20217;-85
2021/03/27 00:40:18;;;;;;;3.88;2.90;;;;;;;;;;5054192;28;20197;-86
2021/03/27 00:43:01;;;;;;;3.08;2.55;;;;;;;;;;5050346;28;20304;-85
2021/03/27 00:45:38;;;;;;;4.20;2.92;;;;;;;;;;5050236;28;20178;-85
2021/03/27 00:48:10;;;;;;;4.70;2.97;;;;;;;;;;5049332;28;20193;-85
2021/03/27 00:50:42;;;;;;;4.82;3.30;;;;;;;;;;5053790;28;20712;-85
2021/03/27 00:53:21;;;;;;;3.47;3.17;;;;;;;;;;5053292;28;20308;-85
2021/03/27 00:56:01;;;;;;;3.10;2.83;;;;;;;;;;5050036;28;20288;-86
2021/03/27 00:58:34;;;;;;;4.50;3.35;;;;;;;;;;5050013;28;20193;-86
2021/03/27 01:01:06;;;;;;;4.15;3.75;;;;;;;;;;5053859;28;20190;-87
2021/03/27 01:03:39;;;;;;;3.40;3.05;;;;;;;;;;5053537;28;20763;-86
2021/03/27 01:06:13;;;;;;;5.20;3.85;;;;;;;;;;5053255;28;20208;-86
2021/03/27 01:08:41;;;;;;;5.38;3.17;;;;;;;;;;5053261;28;20204;-86
2021/03/27 01:11:26;;;;;;;3.92;3.53;;;;;;;;;;5053092;28;20317;-86
2021/03/27 01:13:58;;;;;;;4.82;3.80;;;;;;;;;;5052388;28;20226;-86
2021/03/27 01:16:28;;;;;;;4.68;3.80;;;;;;;;;;5052664;28;20228;-87
2021/03/27 01:19:04;;;;;;;4.45;3.95;;;;;;;;;;5052164;28;20186;-86
2021/03/27 01:21:36;;;;;;;5.82;4.25;;;;;;;;;;5048929;28;20204;-86
2021/03/27 01:24:07;;;;;;;6.78;4.63;;;;;;;;;;5052261;28;20193;-88
2021/03/27 01:26:39;;;;;;;4.63;3.95;;;;;;;;;;5047226;28;20196;-87
2021/03/27 01:29:10;;;;;;;5.00;4.32;;;;;;;;;;5052898;28;20553;-86
2021/03/27 01:31:43;;;;;;;6.78;4.85;;;;;;;;;;5052913;28;20198;-87
2021/03/27 01:34:22;;;;;;;4.82;3.60;;;;;;;;;;5054058;28;20205;-85
2021/03/27 01:36:55;;;;;;;4.60;3.70;;;;;;;;;;5050564;28;20185;-85
2021/03/27 01:39:26;;;;;;;4.25;3.60;;;;;;;;;;5048095;28;20186;-84
2021/03/27 01:42:02;;;;;;;4.38;3.97;;;;;;;;;;5051598;28;20249;-85
2021/03/27 01:44:52;;;;;;;4.82;3.28;;;;;;;;;;5051565;28;20190;-86
2021/03/27 01:47:30;;;;;;;3.67;3.33;;;;;;;;;;5052183;28;20202;-84
2021/03/27 01:50:21;;;;;;;4.47;3.70;;;;;;;;;;5053211;28;20201;-86
2021/03/27 01:53:12;;;;;;;4.68;3.28;;;;;;;;;;5052716;28;20780;-88
2021/03/27 01:56:03;;;;;;;4.10;3.45;;;;;;;;;;5050823;28;20344;-85
2021/03/27 01:58:36;;;;;;;3.72;3.20;;;;;;;;;;5046837;28;20198;-85
2021/03/27 02:01:13;;;;;;;5.35;4.85;;;;;;;;;;5050310;28;20201;-85
2021/03/27 02:03:49;;;;;;;4.68;3.38;;;;;;;;;;5051345;28;20231;-86
2021/03/27 02:06:24;;;;;;;4.43;4.03;;;;;;;;;;5051697;28;20204;-85
2021/03/27 02:09:05;;;;;;;3.67;3.38;;;;;;;;;;5052490;28;20649;-86
2021/03/27 02:11:51;;;;;;;3.38;2.88;;;;;;;;;;5051654;28;20276;-85
2021/03/27 02:14:24;;;;;;;4.25;3.10;;;;;;;;;;5052303;28;20190;-88
2021/03/27 02:16:54;;;;;;;3.42;3.03;;;;;;;;;;5047517;28;20296;-84
2021/03/27 02:19:43;;;;;;;4.70;3.28;;;;;;;;;;5053431;28;20190;-85
2021/03/27 02:22:22;;;;;;;3.20;2.67;;;;;;;;;;5053339;28;20270;-86
2021/03/27 02:25:34;;;;;;;3.67;3.03;;;;;;;;;;5051891;28;20209;-84
2021/03/27 02:28:12;;;;;;;2.95;2.53;;;;;;;;;;4969236;28;20208;-83
2021/03/27 02:30:43;;;;;;;3.03;2.70;;;;;;;;;;4969547;28;20204;-84
2021/03/27 02:33:29;;;;;;;2.70;2.40;;;;;;;;;;5019396;28;20696;-84
2021/03/27 02:36:21;;;;;;;3.30;3.00;;;;;;;;;;5049789;28;20240;-83
2021/03/27 02:39:06;;;;;;;4.28;3.10;;;;;;;;;;5050446;28;20205;-85
2021/03/27 02:41:53;;;;;;;3.45;3.15;;;;;;;;;;5049898;28;20205;-84
2021/03/27 02:44:28;;;;;;;6.82;3.10;;;;;;;;;;5050126;28;20227;-83
2021/03/27 02:46:59;;;;;;;4.00;3.60;;;;;;;;;;5049961;28;20197;-84
2021/03/27 02:49:46;;;;;;;3.95;2.90;;;;;;;;;;5049924;28;20754;-85
2021/03/27 02:52:27;;;;;;;3.92;3.38;;;;;;;;;;5050442;28;20364;-85
2021/03/27 02:55:00;;;;;;;3.83;3.05;;;;;;;;;;5050121;28;20205;-84
2021/03/27 02:57:36;;;;;;;4.38;3.22;;;;;;;;;;5050114;28;20210;-84
2021/03/27 03:00:12;;;;;;;5.65;3.55;;;;;;;;;;5049878;28;20563;-84
2021/03/27 03:02:49;;;;;;;3.60;3.17;;;;;;;;;;5049941;28;20213;-84
2021/03/27 03:05:23;;;;;;;4.25;3.00;;;;;;;;;;5050099;28;20204;-84
2021/03/27 03:08:10;;;;;;;5.80;3.20;;;;;;;;;;5049922;28;20324;-84
2021/03/27 03:10:44;;;;;;;4.60;3.85;;;;;;;;;;5049910;28;20691;-84
2021/03/27 03:13:19;;;;;;;4.18;3.78;;;;;;;;;;5051688;28;20225;-84
2021/03/27 03:15:53;;;;;;;3.55;3.25;;;;;;;;;;5053827;28;20225;-84
2021/03/27 03:18:32;;;;;;;3.92;3.58;;;;;;;;;;5053747;28;20206;-84
2021/03/27 03:21:07;;;;;;;4.60;3.58;;;;;;;;;;5053644;28;20197;-86
2021/03/27 03:23:41;;;;;;;6.72;3.20;;;;;;;;;;5053860;28;20311;-84
2021/03/27 03:26:21;;;;;;;4.63;3.58;;;;;;;;;;5053063;28;20688;-84
2021/03/27 03:28:55;;;;;;;6.25;2.97;;;;;;;;;;5053530;28;20208;-88
2021/03/27 03:31:38;;;;;;;3.78;2.90;;;;;;;;;;5053317;28;20211;-84
2021/03/27 03:34:17;;;;;;;3.30;3.00;;;;;;;;;;5053030;28;20260;-84
2021/03/27 03:36:56;;;;;;;3.70;3.38;;;;;;;;;;5053949;28;20225;-85
2021/03/27 03:40:14;;;;;;;2.60;2.40;;;;;;;;;;5053430;28;20209;-84
2021/03/27 03:43:04;;;;;;;2.78;2.50;;;;;;;;;;5036890;28;20320;-84
2021/03/27 03:46:09;;;;;;;2.60;2.40;;;;;;;;;;5051926;28;20206;-85
2021/03/27 03:48:47;;;;;;;2.55;2.10;;;;;;;;;;5053110;28;20200;-86
2021/03/27 03:51:26;;;;;;;1.52;1.42;;;;;;;;;;5053702;28;20205;-86
2021/03/27 03:54:15;;;;;;;1.23;1.23;;;;;;;;;;5053281;28;20695;-84
2021/03/27 03:56:46;;;;;;;4.40;1.38;;;;;;;;;;5053150;28;20293;-83
2021/03/27 03:59:31;;;;;;;1.20;1.20;;;;;;;;;;5053705;28;20204;-84
2021/03/27 04:02:03;;;;;;;1.65;1.55;;;;;;;;;;5053455;28;20221;-83
2021/03/27 04:04:33;;;;;;;0.95;0.95;;;;;;;;;;5053327;28;20198;-84
2021/03/27 04:07:06;;;;;;;1.98;1.63;;;;;;;;;;5053469;28;20628;-83
2021/03/27 04:09:37;;;;;;;1.58;1.48;;;;;;;;;;5053304;28;20290;-84
2021/03/27 04:12:15;;;;;;;1.45;1.38;;;;;;;;;;5053230;28;20305;-83
2021/03/27 04:15:23;;;;;;;1.20;1.20;;;;;;;;;;5053895;28;20202;-83
2021/03/27 04:17:58;;;;;;;5.22;1.67;;;;;;;;;;5031131;28;20251;-84
2021/03/27 04:20:33;;;;;;;1.50;1.40;;;;;;;;;;5053848;28;20201;-84
2021/03/27 04:23:11;;;;;;;1.75;1.65;;;;;;;;;;5053254;28;20217;-84
2021/03/27 04:25:43;;;;;;;1.92;1.77;;;;;;;;;;5053034;28;20751;-83
2021/03/27 04:28:15;;;;;;;1.70;1.60;;;;;;;;;;5053757;28;20209;-84
2021/03/27 04:30:58;;;;;;;1.13;1.13;;;;;;;;;;5053539;28;20221;-83
2021/03/27 04:33:40;;;;;;;1.58;1.48;;;;;;;;;;5053004;28;20238;-83
2021/03/27 04:36:12;;;;;;;1.67;1.58;;;;;;;;;;5053131;28;20789;-83
2021/03/27 04:38:46;;;;;;;3.00;1.55;;;;;;;;;;5053120;28;20281;-84
2021/03/27 04:41:31;;;;;;;1.50;1.40;;;;;;;;;;5053588;28;20197;-83
2021/03/27 04:44:02;;;;;;;1.70;1.60;;;;;;;;;;5053754;28;20198;-85
2021/03/27 04:46:33;;;;;;;1.55;1.40;;;;;;;;;;5052858;28;20208;-84
2021/03/27 04:49:17;;;;;;;1.40;1.30;;;;;;;;;;5053016;28;20284;-85
2021/03/27 04:51:54;;;;;;;2.22;1.17;;;;;;;;;;5053235;28;20592;-85
2021/03/27 04:54:44;;;;;;;1.38;1.27;;;;;;;;;;5054379;28;20262;-85
2021/03/27 04:57:24;;;;;;;1.00;1.00;;;;;;;;;;5053197;28;20363;-85
2021/03/27 05:00:16;;;;;;;1.70;1.60;;;;;;;;;;5053192;28;20300;-86
2021/03/27 05:02:46;;;;;;;1.23;1.20;;;;;;;;;;5046552;28;20278;-85
2021/03/27 05:05:17;;;;;;;1.40;1.27;;;;;;;;;;5052825;28;20201;-85
2021/03/27 05:07:57;;;;;;;1.15;1.15;;;;;;;;;;5053635;28;20735;-85
2021/03/27 05:10:36;;;;;;;1.30;1.30;;;;;;;;;;5058967;28;20197;-82
2021/03/27 05:13:17;;;;;;;0.90;0.90;;;;;;;;;;5060475;28;20221;-83
2021/03/27 05:15:51;;;;;;;1.35;1.27;;;;;;;;;;5052460;28;20194;-85
2021/03/27 05:18:42;;;;;;;1.38;1.17;;;;;;;;;;5052220;28;20212;-85
2021/03/27 05:21:36;;;;;;;1.35;1.25;;;;;;;;;;5052153;28;20590;-83
2021/03/27 05:24:12;;;;;;;1.00;1.00;;;;;;;;;;5041180;28;20208;-83
2021/03/27 05:26:52;;;;;;;0.90;0.90;;;;;;;;;;5051483;28;20261;-83
2021/03/27 05:29:50;;;;;;;1.00;1.00;;;;;;;;;;5051746;28;20182;-85
2021/03/27 05:32:51;;;;;;;0.82;0.82;;;;;;;;;;5063450;22;20334;-83
2021/03/27 05:35:29;;;;;;;1.35;1.35;;;;;;;;;;5033645;28;20248;-84
2021/03/27 05:38:14;;;;;;;0.60;0.60;;;;;;;;;;5035318;28;20301;-84
2021/03/27 05:41:38;;;;;;;0.70;0.70;;;;;;;;;;5034895;28;20202;-84
2021/03/27 05:44:49;;;;;;;0.77;0.77;;;;;;;;;;5034968;28;20309;-83
2021/03/27 05:48:24;;;;;;;0.60;0.60;;;;;;;;;;5034973;28;20200;-85
2021/03/27 05:51:29;;;;;;;1.00;1.00;;;;;;;;;;4953981;29;20212;-84
2021/03/27 05:54:32;;;;;;;0.90;0.90;;;;;;;;;;5034462;28;20230;-85
2021/03/27 05:57:25;;;;;;;0.63;0.63;;;;;;;;;;5035328;28;20226;-84
2021/03/27 06:00:36;;;;;;;0.73;0.73;;;;;;;;;;5035016;28;20748;-84
2021/03/27 06:03:38;;;;;;;1.75;1.42;;;;;;;;;;5034953;28;20222;-84
2021/03/27 06:06:43;;;;;;;0.80;0.80;;;;;;;;;;5035023;28;20664;-85
2021/03/27 06:09:36;;;;;;;1.30;1.20;;;;;;;;;;5035545;28;20206;-84
2021/03/27 06:12:41;;;;;;;2.20;1.27;;;;;;;;;;5035046;28;20698;-84
2021/03/27 06:15:55;;;;;;;1.15;1.15;;;;;;;;;;5034231;28;20217;-84
2021/03/27 06:19:28;;;;;;;1.98;1.27;;;;;;;;;;5034629;28;20228;-84
2021/03/27 06:22:13;;;;;;;1.92;1.20;;;;;;;;;;5026539;28;20256;-84
2021/03/27 06:24:51;;;;;;;1.45;1.30;;;;;;;;;;5034622;28;20672;-84
2021/03/27 06:27:33;;;;;;;1.48;1.38;;;;;;;;;;5035210;28;20208;-84
2021/03/27 06:30:33;;;;;;;2.40;1.75;;;;;;;;;;5035052;28;20339;-84
2021/03/27 06:33:56;;;;;;;1.60;1.50;;;;;;;;;;5034218;28;20647;-84
2021/03/27 06:36:45;;;;;;;1.73;1.63;;;;;;;;;;5034695;28;20204;-84
2021/03/27 06:39:55;;;;;;;2.78;1.42;;;;;;;;;;5036049;28;20206;-83
2021/03/27 06:42:47;;;;;;;2.05;1.73;;;;;;;;;;5037647;28;20309;-84
2021/03/27 06:45:44;;;;;;;2.13;1.52;;;;;;;;;;5035499;28;20694;-84
2021/03/27 06:49:11;;;;;;;1.58;1.48;;;;;;;;;;5021223;28;20702;-84
2021/03/27 06:52:10;;;;;;;2.25;1.60;;;;;;;;;;5038961;28;20293;-84
2021/03/27 06:55:07;;;;;;;1.45;1.35;;;;;;;;;;5039001;28;20285;-85
2021/03/27 06:57:54;;;;;;;2.25;1.63;;;;;;;;;;5038575;28;20315;-84
2021/03/27 07:01:01;;;;;;;1.80;1.70;;;;;;;;;;5039456;28;20568;-84
2021/03/27 07:04:52;;;;;;;2.40;1.92;;;;;;;;;;5039180;28;20313;-85
2021/03/27 07:07:54;;;;;;;3.70;2.00;;;;;;;;;;4889890;29;20208;-84
2021/03/27 07:11:06;;;;;;;3.72;1.80;;;;;;;;;;5000477;28;20201;-84
2021/03/27 07:14:24;;;;;;;3.25;2.95;;;;;;;;;;5038797;28;20321;-85
2021/03/27 07:17:22;;;;;;;3.42;2.03;;;;;;;;;;5013855;28;20218;-85
2021/03/27 07:20:35;;;;;;;2.30;1.90;;;;;;;;;;5037656;28;20208;-85
2021/03/27 07:23:35;;;;;;;2.67;1.92;;;;;;;;;;5038394;28;20253;-85
2021/03/27 07:26:49;;;;;;;2.55;1.83;;;;;;;;;;5038025;28;20228;-85
2021/03/27 07:29:47;;;;;;;1.67;1.55;;;;;;;;;;4980379;28;20208;-86
2021/03/27 07:32:34;;;;;;;1.83;1.55;;;;;;;;;;5038430;28;20266;-85
2021/03/27 07:35:28;;;;;;;1.95;1.50;;;;;;;;;;5037964;28;20194;-86
2021/03/27 07:38:41;;;;;;;2.25;1.42;;;;;;;;;;5038959;28;20258;-85
2021/03/27 07:41:46;;;;;;;2.55;1.77;;;;;;;;;;5038317;28;20300;-85
2021/03/27 07:44:42;;;;;;;1.70;1.58;;;;;;;;;;5029422;28;20234;-85
2021/03/27 07:47:42;;;;;;;2.53;1.40;;;;;;;;;;5038071;28;20289;-85
2021/03/27 07:50:50;;;;;;;1.98;1.58;;;;;;;;;;5024037;28;20625;-85
2021/03/27 07:53:48;;;;;;;3.22;1.45;;;;;;;;;;5033297;28;20772;-85
2021/03/27 07:56:49;;;;;;;3.42;1.40;;;;;;;;;;4984320;28;20209;-85
2021/03/27 07:59:52;;;;;;;2.13;1.30;;;;;;;;;;5037555;28;20740;-85
2021/03/27 08:02:42;;;;;;;2.30;1.67;;;;;;;;;;5037955;28;20249;-85
2021/03/27 08:05:50;;;;;;;3.15;1.67;;;;;;;;;;5037900;28;20241;-85
2021/03/27 08:09:09;;;;;;;1.67;1.27;;;;;;;;;;5037994;28;20198;-85
2021/03/27 08:12:02;;;;;;;6.68;1.55;;;;;;;;;;5037525;28;20294;-85
2021/03/27 08:14:44;;;;;;;3.15;1.20;;;;;;;;;;5035005;28;20201;-85
2021/03/27 08:17:36;;;;;;;2.90;1.58;;;;;;;;;;5037233;28;20310;-85
2021/03/27 08:20:33;;;;;;;3.47;1.55;;;;;;;;;;5036835;28;20234;-85
2021/03/27 08:23:42;;;;;;;2.97;1.40;;;;;;;;;;5003149;28;20218;-85
2021/03/27 08:26:39;;;;;;;2.45;1.40;;;;;;;;;;5026542;28;20233;-86
2021/03/27 08:30:06;;;;;;;6.15;1.55;;;;;;;;;;5037060;28;20202;-86
2021/03/27 08:32:47;;;;;;;7.82;1.33;;;;;;;;;;5037036;28;20655;-85
2021/03/27 08:35:43;;;;;;;1.90;1.15;;;;;;;;;;5036468;28;20202;-85
2021/03/27 08:38:38;;;;;;;3.72;1.10;;;;;;;;;;5035783;28;20317;-86
2021/03/27 08:41:48;;;;;;;2.90;1.30;;;;;;;;;;5036421;28;20202;-85
2021/03/27 08:44:43;;;;;;;1.13;1.02;;;;;;;;;;5036930;28;20282;-85
2021/03/27 08:47:36;;;;;;;1.25;1.00;;;;;;;;;;5036482;28;20206;-85
2021/03/27 08:50:51;;;;;;;2.55;1.45;;;;;;;;;;5036387;28;20216;-85
2021/03/27 08:53:56;;;;;;;5.40;1.85;;;;;;;;;;5036451;28;20223;-84
2021/03/27 08:57:07;;;;;;;1.55;0.90;;;;;;;;;;5036065;28;20206;-85
2021/03/27 09:00:06;;;;;;;3.72;1.40;;;;;;;;;;5036707;28;20206;-84
2021/03/27 09:03:07;;;;;;;3.75;1.60;;;;;;;;;;5036103;28;20218;-84
2021/03/27 09:06:19;;;;;;;2.50;1.67;;;;;;;;;;4995888;28;20274;-84
2021/03/27 09:08:50;;;;;;;2.45;1.20;;;;;;;;;;5036627;28;20259;-84
2021/03/27 09:11:47;;;;;;;1.63;1.10;;;;;;;;;;5035232;28;20690;-85
2021/03/27 09:14:53;;;;;;;1.77;1.13;;;;;;;;;;5036350;28;20205;-84
2021/03/27 09:17:57;;;;;;;3.50;1.30;;;;;;;;;;5035636;28;20232;-84
2021/03/27 09:20:50;;;;;;;3.00;1.40;;;;;;;;;;4999779;28;20213;-85
2021/03/27 09:23:28;;;;;;;2.85;1.25;;;;;;;;;;5032590;28;20295;-85
2021/03/27 09:26:36;;;;;;;3.92;1.40;;;;;;;;;;5034927;28;20274;-84
2021/03/27 09:29:28;;;;;;;2.25;1.20;;;;;;;;;;5035419;28;20233;-84
2021/03/27 09:32:20;;;;;;;2.40;1.10;;;;;;;;;;5054162;28;20266;-86
2021/03/27 09:35:39;;;;;;;1.55;1.20;;;;;;;;;;5052946;28;20198;-85
2021/03/27 09:38:33;;;;;;;1.63;1.15;;;;;;;;;;5052302;28;20308;-85
2021/03/27 09:41:32;;;;;;;1.00;0.90;;;;;;;;;;5050068;28;20200;-85
2021/03/27 09:44:40;;;;;;;1.23;0.90;;;;;;;;;;5048858;28;20301;-85
2021/03/27 09:47:38;;;;;;;0.90;0.70;;;;;;;;;;5051145;28;20679;-85
2021/03/27 09:50:21;;;;;;;0.80;0.80;;;;;;;;;;5051545;28;20198;-85
2021/03/27 09:53:04;;;;;;;1.67;0.75;;;;;;;;;;5055136;28;20222;-86
2021/03/27 09:55:55;;;;;;;0.63;0.63;;;;;;;;;;5054940;28;20271;-84
2021/03/27 09:58:58;;;;;;;1.10;0.68;;;;;;;;;;5053509;28;20265;-85
2021/03/27 10:01:32;;;;;;;1.13;0.90;;;;;;;;;;5048736;28;20615;-83
2021/03/27 10:04:21;;;;;;;0.77;0.77;;;;;;;;;;5053840;28;20223;-83
2021/03/27 10:07:14;;;;;;;0.60;0.60;;;;;;;;;;5049791;28;20208;-83
2021/03/27 10:10:27;;;;;;;0.77;0.60;;;;;;;;;;5055103;28;20182;-84
2021/03/27 10:12:59;;;;;;;0.52;0.45;;;;;;;;;;5054173;28;20253;-83
2021/03/27 10:15:38;;;;;;;0.85;0.60;;;;;;;;;;5054199;28;20672;-84
2021/03/27 10:18:12;;;;;;;0.63;0.63;;;;;;;;;;5054724;28;20224;-84
2021/03/27 10:20:45;;;;;;;0.80;0.70;;;;;;;;;;5054795;28;20212;-85
2021/03/27 10:23:28;;;;;;;2.40;1.27;;;;;;;;;;5054058;28;20217;-84
2021/03/27 10:26:30;;;;;;;3.33;1.15;;;;;;;;;;5053811;28;20411;-84
2021/03/27 10:29:08;;;;;;;0.73;0.73;;;;;;;;;;5037466;28;20201;-84
2021/03/27 10:31:41;;;;;;;0.98;0.70;;;;;;;;;;5054227;28;20253;-84
2021/03/27 10:34:29;;;;;;;2.13;0.68;;;;;;;;;;5053755;28;20324;-84
2021/03/27 10:37:04;;;;;;;0.60;0.60;;;;;;;;;;5053906;28;20197;-85
2021/03/27 10:40:28;;;;;;;0.82;0.80;;;;;;;;;;5054234;28;20235;-84
2021/03/27 10:43:30;;;;;;;2.55;0.80;;;;;;;;;;5042251;28;20320;-84
2021/03/27 10:46:10;;;;;;;1.00;0.90;;;;;;;;;;5037176;28;20270;-85
2021/03/27 10:49:13;;;;;;;1.77;1.48;;;;;;;;;;5053816;28;20182;-85
2021/03/27 10:52:46;;;;;;;0.80;0.80;;;;;;;;;;5054734;28;20237;-84
2021/03/27 10:55:29;;;;;;;2.50;0.80;;;;;;;;;;5000972;28;20205;-83
2021/03/27 10:58:28;;;;;;;1.40;1.10;;;;;;;;;;5054417;28;20316;-84
2021/03/27 11:01:14;;;;;;;1.02;0.80;;;;;;;;;;5056249;28;20174;-84
2021/03/27 11:04:05;;;;;;;2.63;1.42;;;;;;;;;;5058814;28;20221;-83
2021/03/27 11:06:45;;;;;;;2.35;1.23;;;;;;;;;;5055413;28;20281;-83
2021/03/27 11:09:55;;;;;;;1.13;0.80;;;;;;;;;;5055858;28;20269;-86
2021/03/27 11:12:42;;;;;;;0.80;0.80;;;;;;;;;;5056931;28;20308;-83
2021/03/27 11:15:49;;;;;;;1.85;0.80;;;;;;;;;;5055846;28;20231;-83
2021/03/27 11:19:31;;;;;;;0.90;0.90;;;;;;;;;;5056721;28;20227;-85
2021/03/27 11:22:26;;;;;;;2.72;0.80;;;;;;;;;;4993687;28;20591;-85
2021/03/27 11:25:20;;;;;;;1.08;0.98;;;;;;;;;;4992478;28;20199;-84
2021/03/27 11:27:59;;;;;;;1.48;1.10;;;;;;;;;;5051508;28;20336;-84
2021/03/27 11:30:37;;;;;;;8.75;1.42;;;;;;;;;;5054758;28;20206;-85
2021/03/27 11:33:19;;;;;;;2.15;1.30;;;;;;;;;;5065495;22;20706;-86
2021/03/27 11:36:08;;;;;;;1.70;1.60;;;;;;;;;;5040073;28;20202;-85
2021/03/27 11:38:57;;;;;;;1.70;1.60;;;;;;;;;;5035224;28;20276;-85
2021/03/27 11:41:47;;;;;;;1.85;1.63;;;;;;;;;;5035119;28;20663;-85
2021/03/27 11:44:51;;;;;;;3.85;1.17;;;;;;;;;;5051439;28;20227;-85
2021/03/27 11:47:34;;;;;;;2.60;1.48;;;;;;;;;;5054877;28;20562;-90
2021/03/27 11:50:41;;;;;;;1.40;1.23;;;;;;;;;;5054645;28;20269;-85
2021/03/27 11:53:49;;;;;;;1.20;1.10;;;;;;;;;;5054795;28;20234;-86
2021/03/27 11:56:45;;;;;;;1.55;1.40;;;;;;;;;;4973212;28;20201;-85
2021/03/27 12:00:47;;;;;;;3.45;2.15;;;;;;;;;;4973168;28;20814;-86
2021/03/27 12:02:55;;;;;;;3.92;2.10;;;;;;;;;;5054793;28;20548;-87
2021/03/27 12:05:37;;;;;;;2.17;1.98;;;;;;;;;;5055824;28;20692;-86
2021/03/27 12:08:20;;;;;;;2.50;1.73;;;;;;;;;;5054719;28;20272;-86
2021/03/27 12:11:08;;;;;;;2.70;1.45;;;;;;;;;;5054785;28;20636;-85
2021/03/27 12:13:42;;;;;;;2.63;1.52;;;;;;;;;;5055829;28;20225;-85
2021/03/27 12:16:27;;;;;;;5.65;2.17;;;;;;;;;;5055687;28;20288;-87
2021/03/27 12:19:29;;;;;;;2.80;1.80;;;;;;;;;;5055086;28;20300;-85
2021/03/27 12:22:08;;;;;;;0.70;0.70;;;;;;;;;;5054490;28;20205;-85
2021/03/27 12:24:53;;;;;;;0.60;0.60;;;;;;;;;;5055343;28;20221;-85
2021/03/27 12:27:27;;;;;;;0.98;0.70;;;;;;;;;;5055495;28;20582;-85
2021/03/27 12:30:17;;;;;;;0.50;0.50;;;;;;;;;;5055275;28;20194;-85
2021/03/27 12:32:54;;;;;;;0.93;0.93;;;;;;;;;;5054146;28;20238;-85
2021/03/27 12:35:31;;;;;;;0.60;0.60;;;;;;;;;;5054337;28;20575;-85
2021/03/27 12:38:21;;;;;;;0.50;0.50;;;;;;;;;;5053480;28;20186;-85
2021/03/27 12:40:59;;;;;;;0.47;0.47;;;;;;;;;;5033548;28;20553;-85
2021/03/27 12:43:31;;;;;;;0.57;0.57;;;;;;;;;;5038032;28;20221;-85
2021/03/27 12:46:21;;;;;;;0.45;0.45;;;;;;;;;;5039074;28;20190;-85
2021/03/27 12:49:25;;;;;;;0.40;0.40;;;;;;;;;;5042066;28;20604;-85
2021/03/27 12:52:18;;;;;;;1.48;1.05;;;;;;;;;;5044465;28;20202;-84
2021/03/27 12:54:56;;;;;;;0.70;0.70;;;;;;;;;;5028105;28;20202;-85
2021/03/27 12:57:44;;;;;;;1.15;1.05;;;;;;;;;;5046854;28;20623;-84
2021/03/27 13:00:55;;;;;;;1.85;0.73;;;;;;;;;;5034216;28;20228;-85
2021/03/27 13:04:14;;;;;;;1.35;0.90;;;;;;;;;;5035454;28;20221;-85
2021/03/27 13:07:06;;;;;;;1.08;1.00;;;;;;;;;;5045680;28;20190;-84
2021/03/27 13:10:07;;;;;;;3.03;0.80;;;;;;;;;;5040234;28;20199;-84
2021/03/27 13:12:44;;;;;;;1.15;1.15;;;;;;;;;;5040877;28;20238;-84
2021/03/27 13:15:38;;;;;;;0.70;0.70;;;;;;;;;;5053830;28;20177;-84
2021/03/27 13:18:39;;;;;;;0.75;0.75;;;;;;;;;;5053205;28;20658;-85
2021/03/27 13:21:35;;;;;;;0.85;0.85;;;;;;;;;;5053668;28;20227;-84
2021/03/27 13:24:12;;;;;;;1.20;1.10;;;;;;;;;;5053327;28;20286;-85
2021/03/27 13:26:46;;;;;;;1.15;1.15;;;;;;;;;;5053033;28;20269;-86
2021/03/27 13:29:34;;;;;;;1.30;0.90;;;;;;;;;;5054240;28;20187;-85
2021/03/27 13:32:15;;;;;;;1.15;1.05;;;;;;;;;;5054016;28;20198;-85
2021/03/27 13:34:58;;;;;;;0.90;0.90;;;;;;;;;;5053700;28;20240;-85
2021/03/27 13:37:35;;;;;;;1.45;1.20;;;;;;;;;;5053390;28;20197;-85
2021/03/27 13:40:17;;;;;;;1.02;0.98;;;;;;;;;;5053461;28;20205;-85
2021/03/27 13:42:51;;;;;;;1.27;1.20;;;;;;;;;;5054041;28;20565;-85
2021/03/27 13:45:31;;;;;;;2.40;1.83;;;;;;;;;;5053816;28;20192;-85
2021/03/27 13:48:30;;;;;;;1.50;1.30;;;;;;;;;;5053765;28;20212;-85
2021/03/27 13:51:19;;;;;;;2.00;1.10;;;;;;;;;;5053432;28;20296;-85
2021/03/27 13:53:57;;;;;;;1.60;1.20;;;;;;;;;;5053419;28;20249;-85
2021/03/27 13:56:53;;;;;;;1.25;1.15;;;;;;;;;;5046574;28;20190;-85
2021/03/27 13:59:45;;;;;;;1.40;1.20;;;;;;;;;;5016469;28;20695;-86
2021/03/27 14:02:42;;;;;;;1.20;1.10;;;;;;;;;;5042165;28;20520;-86
2021/03/27 14:05:39;;;;;;;2.30;1.17;;;;;;;;;;5049146;28;20196;-86
2021/03/27 14:08:15;;;;;;;1.83;1.50;;;;;;;;;;5037575;28;20194;-86
2021/03/27 14:10:51;;;;;;;1.63;1.27;;;;;;;;;;5046877;28;20327;-86
2021/03/27 14:13:26;;;;;;;2.50;1.30;;;;;;;;;;5038978;28;20225;-87
2021/03/27 14:16:08;;;;;;;1.42;1.20;;;;;;;;;;5033482;28;20791;-85
2021/03/27 14:18:57;;;;;;;2.45;1.77;;;;;;;;;;5033687;28;20208;-86
2021/03/27 14:22:05;;;;;;;3.50;1.88;;;;;;;;;;5034063;28;20266;-86
2021/03/27 14:25:30;;;;;;;1.60;1.50;;;;;;;;;;5033760;28;20562;-85
2021/03/27 14:28:14;;;;;;;2.50;1.60;;;;;;;;;;5033472;28;20661;-85
2021/03/27 14:31:04;;;;;;;1.17;1.08;;;;;;;;;;5033248;28;20672;-85
2021/03/27 14:34:03;;;;;;;3.63;1.27;;;;;;;;;;5032646;28;20241;-86
2021/03/27 14:36:41;;;;;;;2.10;1.40;;;;;;;;;;5021006;28;20198;-86
2021/03/27 14:39:35;;;;;;;1.40;1.30;;;;;;;;;;5032905;28;20201;-87
2021/03/27 14:42:11;;;;;;;7.43;1.20;;;;;;;;;;5033264;28;20206;-87
2021/03/27 14:44:47;;;;;;;2.38;0.98;;;;;;;;;;5032922;28;20245;-86
2021/03/27 14:48:10;;;;;;;1.25;1.17;;;;;;;;;;5033262;28;20593;-85
2021/03/27 14:50:58;;;;;;;2.15;1.30;;;;;;;;;;5020067;28;20206;-87
2021/03/27 14:53:36;;;;;;;1.15;1.00;;;;;;;;;;5032817;28;20246;-87
2021/03/27 14:56:12;;;;;;;2.83;1.38;;;;;;;;;;5033028;28;20207;-88
2021/03/27 14:58:43;;;;;;;1.20;1.10;;;;;;;;;;5032353;28;20224;-87
2021/03/27 15:01:15;;;;;;;1.42;1.30;;;;;;;;;;5032513;28;20658;-87
2021/03/27 15:04:01;;;;;;;1.95;1.40;;;;;;;;;;5032436;28;20718;-87
2021/03/27 15:06:43;;;;;;;1.30;1.20;;;;;;;;;;5033180;28;20190;-87
2021/03/27 15:09:21;;;;;;;2.15;1.55;;;;;;;;;;5036190;28;20205;-87
2021/03/27 15:12:08;;;;;;;1.45;1.35;;;;;;;;;;5037547;28;20202;-87
2021/03/27 15:14:47;;;;;;;1.98;1.52;;;;;;;;;;5041360;28;20317;-87
2021/03/27 15:17:37;;;;;;;2.13;1.60;;;;;;;;;;5043323;28;20206;-85
2021/03/27 15:20:24;;;;;;;1.98;1.88;;;;;;;;;;5045658;28;20594;-85
2021/03/27 15:23:08;;;;;;;2.25;2.05;;;;;;;;;;5034106;28;20309;-85
2021/03/27 15:28:41;;;;;;;1.60;1.50;;;;;;;;;;5034946;28;20723;-84
2021/03/27 15:31:14;;;;;;;2.75;1.55;;;;;;;;;;5034500;28;20579;-85
2021/03/27 15:33:52;;;;;;;3.53;1.67;;;;;;;;;;5034293;28;20222;-83
2021/03/27 15:36:26;;;;;;;1.88;1.13;;;;;;;;;;5034800;28;20199;-84
2021/03/27 15:39:05;;;;;;;1.38;1.20;;;;;;;;;;5034733;28;20220;-85
2021/03/27 15:41:36;;;;;;;1.60;1.30;;;;;;;;;;5034244;28;20232;-86
2021/03/27 15:44:10;;;;;;;1.90;1.30;;;;;;;;;;5034196;28;20218;-85
2021/03/27 15:46:42;;;;;;;2.53;1.60;;;;;;;;;;5034096;28;21003;-85
2021/03/27 15:49:19;;;;;;;1.98;1.50;;;;;;;;;;5034294;28;20245;-85
2021/03/27 15:52:04;;;;;;;6.82;2.33;;;;;;;;;;5034971;28;20198;-86
2021/03/27 15:54:46;;;;;;;2.83;1.80;;;;;;;;;;5034006;28;20234;-85
2021/03/27 15:57:46;;;;;;;1.75;1.52;;;;;;;;;;5034234;28;20256;-86
2021/03/27 16:00:39;;;;;;;3.53;2.10;;;;;;;;;;4953931;29;20311;-85
2021/03/27 16:03:59;;;;;;;3.20;1.80;;;;;;;;;;4953833;29;20236;-84
2021/03/27 16:06:40;;;;;;;3.35;1.60;;;;;;;;;;5011025;28;20555;-85
2021/03/27 16:09:19;;;;;;;1.60;1.50;;;;;;;;;;5033790;28;20199;-85
2021/03/27 16:12:05;;;;;;;6.00;1.70;;;;;;;;;;5033710;28;20293;-85
2021/03/27 16:14:58;;;;;;;6.88;2.70;;;;;;;;;;5034122;28;20305;-86
2021/03/27 16:17:55;;;;;;;4.13;3.17;;;;;;;;;;5034042;28;20552;-86
2021/03/27 16:20:48;;;;;;;5.32;3.03;;;;;;;;;;5023518;28;20608;-85
2021/03/27 16:23:30;;;;;;;4.38;2.20;;;;;;;;;;5015150;28;20268;-86
2021/03/27 16:26:35;;;;;;;3.13;2.47;;;;;;;;;;5033784;28;20202;-86
2021/03/27 16:29:26;;;;;;;5.68;2.13;;;;;;;;;;5010835;28;20209;-84
2021/03/27 16:32:05;;;;;;;2.38;1.48;;;;;;;;;;5033940;28;20694;-86
2021/03/27 16:35:00;;;;;;;3.42;1.83;;;;;;;;;;5034232;28;20273;-85
2021/03/27 16:37:39;;;;;;;7.00;5.20;;;;;;;;;;5034307;28;20212;-86
2021/03/27 16:40:21;;;;;;;3.33;2.70;;;;;;;;;;5033928;28;20214;-85
2021/03/27 16:43:07;;;;;;;3.97;2.63;;;;;;;;;;5033720;28;20237;-85
2021/03/27 16:46:00;;;;;;;2.28;1.50;;;;;;;;;;5033449;28;20209;-85
2021/03/27 16:48:48;;;;;;;1.40;1.30;;;;;;;;;;5033974;28;20634;-86
2021/03/27 16:51:22;;;;;;;1.52;1.42;;;;;;;;;;5033578;28;20556;-85